sensor_id;sensor_type;location;lat;lon;timestamp;temperature;humidity
8269;DHT22;4174;48.304;16.364;2022-09-29T00:00:54;13.60;99.90
8269;DHT22;4174;48.304;16.364;2022-09-29T00:07:00;13.70;99.90
8269;DHT22;4174;48.304;16.364;2022-09-29T00:13:05;13.80;99.90
8269;DHT22;4174;48.304;16.364;2022-09-29T00:25:34;13.70;99.90
8269;DHT22;4174;48.304;16.364;2022-09-29T00:31:41;13.60;99.90
8269;DHT22;4174;48.304;16.364;2022-09-29T00:37:47;13.60;99.90
8269;DHT22;4174;48.304;16.364;2022-09-29T00:43:56;13.60;99.90
8269;DHT22;4174;48.304;16.364;2022-09-29T00:50:19;13.60;99.90
8269;DHT22;4174;48.304;16.364;2022-09-29T00:56:26;13.70;99.90
8269;DHT22;4174;48.304;16.364;2022-09-29T01:02:33;13.80;99.90
8269;DHT22;4174;48.304;16.364;2022-09-29T01:08:53;13.70;99.90
8269;DHT22;4174;48.304;16.364;2022-09-29T01:15:01;13.60;99.90
8269;DHT22;4174;48.304;16.364;2022-09-29T01:21:27;13.70;99.90
8269;DHT22;4174;48.304;16.364;2022-09-29T01:27:57;13.60;99.90
8269;DHT22;4174;48.304;16.364;2022-09-29T01:34:05;13.50;99.90
8269;DHT22;4174;48.304;16.364;2022-09-29T01:40:13;13.60;99.90
8269;DHT22;4174;48.304;16.364;2022-09-29T01:46:20;13.60;99.90
8269;DHT22;4174;48.304;16.364;2022-09-29T01:52:30;13.60;99.90
8269;DHT22;4174;48.304;16.364;2022-09-29T01:58:39;13.60;99.90
8269;DHT22;4174;48.304;16.364;2022-09-29T02:04:50;13.60;99.90
8269;DHT22;4174;48.304;16.364;2022-09-29T02:10:55;13.40;99.90
8269;DHT22;4174;48.304;16.364;2022-09-29T02:17:11;13.40;99.90
8269;DHT22;4174;48.304;16.364;2022-09-29T02:23:10;13.30;99.90
8269;DHT22;4174;48.304;16.364;2022-09-29T02:29:16;13.30;99.90
8269;DHT22;4174;48.304;16.364;2022-09-29T02:48:35;12.90;99.90
8269;DHT22;4174;48.304;16.364;2022-09-29T02:56:10;13.00;99.90
8269;DHT22;4174;48.304;16.364;2022-09-29T03:01:21;13.00;99.90
8269;DHT22;4174;48.304;16.364;2022-09-29T03:07:25;13.00;99.90
8269;DHT22;4174;48.304;16.364;2022-09-29T03:13:32;13.00;99.90
8269;DHT22;4174;48.304;16.364;2022-09-29T03:19:37;12.90;99.90
8269;DHT22;4174;48.304;16.364;2022-09-29T03:25:49;13.00;99.90
8269;DHT22;4174;48.304;16.364;2022-09-29T03:31:57;13.00;99.90
8269;DHT22;4174;48.304;16.364;2022-09-29T03:38:02;12.90;99.90
8269;DHT22;4174;48.304;16.364;2022-09-29T03:44:08;12.70;99.90
8269;DHT22;4174;48.304;16.364;2022-09-29T03:50:16;12.80;99.90
8269;DHT22;4174;48.304;16.364;2022-09-29T03:56:26;12.70;99.90
8269;DHT22;4174;48.304;16.364;2022-09-29T04:02:31;12.40;99.90
8269;DHT22;4174;48.304;16.364;2022-09-29T04:08:39;12.50;99.90
8269;DHT22;4174;48.304;16.364;2022-09-29T04:14:47;12.50;99.90
8269;DHT22;4174;48.304;16.364;2022-09-29T04:20:53;12.20;99.90
8269;DHT22;4174;48.304;16.364;2022-09-29T04:27:00;12.10;99.90
8269;DHT22;4174;48.304;16.364;2022-09-29T04:33:07;12.20;99.90
8269;DHT22;4174;48.304;16.364;2022-09-29T04:39:15;12.30;99.90
8269;DHT22;4174;48.304;16.364;2022-09-29T04:45:22;12.30;99.90
8269;DHT22;4174;48.304;16.364;2022-09-29T04:51:28;12.40;99.90
8269;DHT22;4174;48.304;16.364;2022-09-29T04:57:43;12.50;99.90
8269;DHT22;4174;48.304;16.364;2022-09-29T05:10:04;12.60;99.90
8269;DHT22;4174;48.304;16.364;2022-09-29T05:16:09;12.60;99.90
8269;DHT22;4174;48.304;16.364;2022-09-29T05:22:17;12.50;99.90
8269;DHT22;4174;48.304;16.364;2022-09-29T05:28:24;12.40;99.90
8269;DHT22;4174;48.304;16.364;2022-09-29T05:34:42;12.40;99.90
8269;DHT22;4174;48.304;16.364;2022-09-29T05:40:53;12.30;99.90
8269;DHT22;4174;48.304;16.364;2022-09-29T05:46:58;12.20;99.90
8269;DHT22;4174;48.304;16.364;2022-09-29T05:53:13;12.30;99.90
8269;DHT22;4174;48.304;16.364;2022-09-29T05:59:20;12.20;99.90
8269;DHT22;4174;48.304;16.364;2022-09-29T06:05:26;12.20;99.90
8269;DHT22;4174;48.304;16.364;2022-09-29T06:11:34;12.40;99.90
8269;DHT22;4174;48.304;16.364;2022-09-29T06:17:40;12.60;99.90
8269;DHT22;4174;48.304;16.364;2022-09-29T06:23:50;12.60;99.90
8269;DHT22;4174;48.304;16.364;2022-09-29T06:36:20;12.70;99.90
8269;DHT22;4174;48.304;16.364;2022-09-29T06:42:31;13.00;99.90
8269;DHT22;4174;48.304;16.364;2022-09-29T06:48:38;13.20;99.90
8269;DHT22;4174;48.304;16.364;2022-09-29T06:54:44;13.20;99.90
8269;DHT22;4174;48.304;16.364;2022-09-29T07:00:53;13.40;99.90
8269;DHT22;4174;48.304;16.364;2022-09-29T07:07:01;13.70;99.90
8269;DHT22;4174;48.304;16.364;2022-09-29T07:13:07;14.00;99.90
8269;DHT22;4174;48.304;16.364;2022-09-29T07:19:15;14.30;99.90
8269;DHT22;4174;48.304;16.364;2022-09-29T07:25:22;14.70;99.90
8269;DHT22;4174;48.304;16.364;2022-09-29T07:31:28;14.60;99.90
8269;DHT22;4174;48.304;16.364;2022-09-29T07:37:34;14.60;99.90
8269;DHT22;4174;48.304;16.364;2022-09-29T07:43:45;14.80;99.90
8269;DHT22;4174;48.304;16.364;2022-09-29T07:49:51;14.70;99.90
8269;DHT22;4174;48.304;16.364;2022-09-29T07:56:12;15.00;99.90
8269;DHT22;4174;48.304;16.364;2022-09-29T08:02:20;15.40;99.90
8269;DHT22;4174;48.304;16.364;2022-09-29T08:08:34;15.20;99.90
8269;DHT22;4174;48.304;16.364;2022-09-29T08:42:10;16.00;99.90
8269;DHT22;4174;48.304;16.364;2022-09-29T08:48:21;17.50;99.90
8269;DHT22;4174;48.304;16.364;2022-09-29T09:01:43;17.50;99.90
8269;DHT22;4174;48.304;16.364;2022-09-29T09:07:57;17.90;99.90
8269;DHT22;4174;48.304;16.364;2022-09-29T09:28:18;20.20;99.90
8269;DHT22;4174;48.304;16.364;2022-09-29T09:34:38;20.20;99.90
8269;DHT22;4174;48.304;16.364;2022-09-29T09:40:52;20.40;99.90
8269;DHT22;4174;48.304;16.364;2022-09-29T09:46:59;20.40;99.90
8269;DHT22;4174;48.304;16.364;2022-09-29T10:00:05;21.60;99.90
8269;DHT22;4174;48.304;16.364;2022-09-29T10:06:57;21.50;99.70
8269;DHT22;4174;48.304;16.364;2022-09-29T10:19:58;21.40;99.60
8269;DHT22;4174;48.304;16.364;2022-09-29T10:26:18;22.10;97.70
8269;DHT22;4174;48.304;16.364;2022-09-29T10:39:42;22.20;96.20
8269;DHT22;4174;48.304;16.364;2022-09-29T10:53:06;23.30;93.10
8269;DHT22;4174;48.304;16.364;2022-09-29T10:59:25;24.50;90.80
8269;DHT22;4174;48.304;16.364;2022-09-29T11:06:11;24.40;85.20
8269;DHT22;4174;48.304;16.364;2022-09-29T11:19:30;25.10;68.50
8269;DHT22;4174;48.304;16.364;2022-09-29T11:26:02;25.20;79.80
8269;DHT22;4174;48.304;16.364;2022-09-29T11:53:14;22.60;75.90
8269;DHT22;4174;48.304;16.364;2022-09-29T12:20:15;21.50;77.20
8269;DHT22;4174;48.304;16.364;2022-09-29T12:26:55;20.20;76.10
8269;DHT22;4174;48.304;16.364;2022-09-29T12:33:12;19.70;80.40
8269;DHT22;4174;48.304;16.364;2022-09-29T12:52:56;22.00;79.50
8269;DHT22;4174;48.304;16.364;2022-09-29T13:20:09;19.50;95.50
8269;DHT22;4174;48.304;16.364;2022-09-29T13:27:32;19.50;95.50
8269;DHT22;4174;48.304;16.364;2022-09-29T13:33:36;19.30;86.00
8269;DHT22;4174;48.304;16.364;2022-09-29T13:39:52;19.20;85.90
8269;DHT22;4174;48.304;16.364;2022-09-29T13:46:36;18.90;86.30
8269;DHT22;4174;48.304;16.364;2022-09-29T13:52:54;18.90;86.30
8269;DHT22;4174;48.304;16.364;2022-09-29T13:59:00;19.40;90.20
8269;DHT22;4174;48.304;16.364;2022-09-29T14:05:38;19.20;85.30
8269;DHT22;4174;48.304;16.364;2022-09-29T14:11:48;19.30;88.20
8269;DHT22;4174;48.304;16.364;2022-09-29T14:18:02;19.30;87.70
8269;DHT22;4174;48.304;16.364;2022-09-29T14:24:40;19.80;86.60
8269;DHT22;4174;48.304;16.364;2022-09-29T14:51:52;18.80;89.50
8269;DHT22;4174;48.304;16.364;2022-09-29T15:05:29;17.80;91.00
8269;DHT22;4174;48.304;16.364;2022-09-29T15:25:25;16.90;96.60
8269;DHT22;4174;48.304;16.364;2022-09-29T15:39:08;16.80;99.50
8269;DHT22;4174;48.304;16.364;2022-09-29T15:45:53;16.80;99.50
8269;DHT22;4174;48.304;16.364;2022-09-29T15:52:25;17.00;99.90
8269;DHT22;4174;48.304;16.364;2022-09-29T15:58:45;17.20;99.90
8269;DHT22;4174;48.304;16.364;2022-09-29T16:05:06;17.10;99.90
8269;DHT22;4174;48.304;16.364;2022-09-29T16:11:36;16.60;99.90
8269;DHT22;4174;48.304;16.364;2022-09-29T16:31:47;16.70;99.90
8269;DHT22;4174;48.304;16.364;2022-09-29T16:44:40;16.40;99.90
8269;DHT22;4174;48.304;16.364;2022-09-29T16:50:48;16.10;99.90
8269;DHT22;4174;48.304;16.364;2022-09-29T16:57:10;16.00;99.90
8269;DHT22;4174;48.304;16.364;2022-09-29T17:03:15;16.00;99.90
8269;DHT22;4174;48.304;16.364;2022-09-29T17:09:22;16.10;99.90
8269;DHT22;4174;48.304;16.364;2022-09-29T17:22:37;16.20;99.90
8269;DHT22;4174;48.304;16.364;2022-09-29T17:28:48;16.20;99.90
8269;DHT22;4174;48.304;16.364;2022-09-29T17:35:01;16.10;99.90
8269;DHT22;4174;48.304;16.364;2022-09-29T17:55:18;15.70;99.90
8269;DHT22;4174;48.304;16.364;2022-09-29T18:01:26;15.60;99.90
8269;DHT22;4174;48.304;16.364;2022-09-29T18:07:55;15.40;99.90
8269;DHT22;4174;48.304;16.364;2022-09-29T18:14:04;15.40;99.90
8269;DHT22;4174;48.304;16.364;2022-09-29T18:20:16;15.30;99.90
8269;DHT22;4174;48.304;16.364;2022-09-29T18:26:30;15.00;99.90
8269;DHT22;4174;48.304;16.364;2022-09-29T18:32:35;14.90;99.90
8269;DHT22;4174;48.304;16.364;2022-09-29T18:38:41;14.90;99.90
8269;DHT22;4174;48.304;16.364;2022-09-29T18:45:02;14.80;99.90
8269;DHT22;4174;48.304;16.364;2022-09-29T18:51:10;14.60;99.90
8269;DHT22;4174;48.304;16.364;2022-09-29T18:57:21;14.50;99.90
8269;DHT22;4174;48.304;16.364;2022-09-29T19:03:27;14.50;99.90
8269;DHT22;4174;48.304;16.364;2022-09-29T19:09:33;14.60;99.90
8269;DHT22;4174;48.304;16.364;2022-09-29T19:15:42;14.60;99.90
8269;DHT22;4174;48.304;16.364;2022-09-29T19:21:49;14.60;99.90
8269;DHT22;4174;48.304;16.364;2022-09-29T19:28:02;14.60;99.90
8269;DHT22;4174;48.304;16.364;2022-09-29T19:34:08;14.60;99.90
8269;DHT22;4174;48.304;16.364;2022-09-29T19:40:18;14.60;99.90
8269;DHT22;4174;48.304;16.364;2022-09-29T19:46:31;14.60;99.90
8269;DHT22;4174;48.304;16.364;2022-09-29T19:52:41;14.70;99.90
8269;DHT22;4174;48.304;16.364;2022-09-29T20:05:26;14.80;99.90
8269;DHT22;4174;48.304;16.364;2022-09-29T20:11:57;14.80;99.90
8269;DHT22;4174;48.304;16.364;2022-09-29T20:18:03;14.80;99.90
8269;DHT22;4174;48.304;16.364;2022-09-29T20:24:15;14.80;99.90
8269;DHT22;4174;48.304;16.364;2022-09-29T20:30:29;14.70;99.90
8269;DHT22;4174;48.304;16.364;2022-09-29T20:36:42;14.70;99.90
8269;DHT22;4174;48.304;16.364;2022-09-29T20:42:48;14.70;99.90
8269;DHT22;4174;48.304;16.364;2022-09-29T20:48:56;14.70;99.90
8269;DHT22;4174;48.304;16.364;2022-09-29T20:55:03;14.70;99.90
8269;DHT22;4174;48.304;16.364;2022-09-29T21:01:14;14.70;99.90
8269;DHT22;4174;48.304;16.364;2022-09-29T21:07:19;14.60;99.90
8269;DHT22;4174;48.304;16.364;2022-09-29T21:13:47;14.60;99.90
8269;DHT22;4174;48.304;16.364;2022-09-29T21:19:51;14.70;99.90
8269;DHT22;4174;48.304;16.364;2022-09-29T21:25:59;14.60;99.90
8269;DHT22;4174;48.304;16.364;2022-09-29T21:32:06;14.60;99.90
8269;DHT22;4174;48.304;16.364;2022-09-29T21:38:21;14.60;99.90
8269;DHT22;4174;48.304;16.364;2022-09-29T21:44:31;14.60;99.90
8269;DHT22;4174;48.304;16.364;2022-09-29T21:50:42;14.60;99.90
8269;DHT22;4174;48.304;16.364;2022-09-29T21:56:57;14.60;99.90
8269;DHT22;4174;48.304;16.364;2022-09-29T22:03:03;14.70;99.90
8269;DHT22;4174;48.304;16.364;2022-09-29T22:09:19;14.70;99.90
8269;DHT22;4174;48.304;16.364;2022-09-29T22:15:26;14.60;99.90
8269;DHT22;4174;48.304;16.364;2022-09-29T22:27:53;14.60;99.90
8269;DHT22;4174;48.304;16.364;2022-09-29T22:33:58;14.60;99.90
8269;DHT22;4174;48.304;16.364;2022-09-29T22:40:07;14.50;99.90
8269;DHT22;4174;48.304;16.364;2022-09-29T22:46:14;14.50;99.90
8269;DHT22;4174;48.304;16.364;2022-09-29T22:52:29;14.50;99.90
8269;DHT22;4174;48.304;16.364;2022-09-29T22:58:38;14.50;99.90
8269;DHT22;4174;48.304;16.364;2022-09-29T23:04:43;14.50;99.90
8269;DHT22;4174;48.304;16.364;2022-09-29T23:10:48;14.40;99.90
8269;DHT22;4174;48.304;16.364;2022-09-29T23:17:03;14.40;99.90
8269;DHT22;4174;48.304;16.364;2022-09-29T23:29:54;14.30;99.90
8269;DHT22;4174;48.304;16.364;2022-09-29T23:36:11;14.40;99.90
8269;DHT22;4174;48.304;16.364;2022-09-29T23:42:17;14.50;99.90
8269;DHT22;4174;48.304;16.364;2022-09-29T23:54:51;14.60;99.90
